Time,TemperatureF,DewpointF,PressureIn,WindDirection,WindDirectionDegrees,WindSpeedMPH,WindSpeedGustMPH,Humidity,HourlyPrecipIn,Conditions,Clouds,dailyrainin,SoftwareType,DateUTC
2013-03-16 00:00:00,50.0,32.2,29.54,ESE,113,1.2,3.7,50,0.00,,,0.00,WUHU216HW,2013-03-16 04:00:00,
2013-03-16 00:05:00,49.9,32.0,29.54,ESE,113,1.8,2.4,50,0.00,,,0.00,WUHU216HW,2013-03-16 04:05:00,
2013-03-16 00:10:00,49.9,32.5,29.54,SE,142,2.5,3.5,51,0.00,,,0.00,WUHU216HW,2013-03-16 04:10:00,
2013-03-16 00:15:00,50.0,32.7,29.54,NE,45,1.8,3.5,51,0.00,,,0.00,WUHU216HW,2013-03-16 04:15:00,
2013-03-16 00:20:00,49.7,32.3,29.54,ESE,113,2.0,2.6,51,0.00,,,0.00,WUHU216HW,2013-03-16 04:20:00,
2013-03-16 00:25:00,49.7,32.8,29.54,SW,225,0.8,3.7,52,0.00,,,0.00,WUHU216HW,2013-03-16 04:25:00,
2013-03-16 00:30:00,49.7,32.3,29.54,SE,135,1.0,3.7,51,0.00,,,0.00,WUHU216HW,2013-03-16 04:30:00,
2013-03-16 00:35:00,49.5,32.1,29.54,WNW,288,1.3,3.0,51,0.00,,,0.00,WUHU216HW,2013-03-16 04:35:00,
2013-03-16 00:40:00,48.6,31.7,29.54,NNE,14,0.3,3.0,52,0.00,,,0.00,WUHU216HW,2013-03-16 04:40:00,
2013-03-16 00:45:00,47.9,31.1,29.54,NE,45,1.0,1.6,52,0.00,,,0.00,WUHU216HW,2013-03-16 04:45:00,
2013-03-16 00:50:00,47.2,30.8,29.54,SE,135,0.0,1.1,53,0.00,,,0.00,WUHU216HW,2013-03-16 04:50:00,
2013-03-16 00:55:00,46.6,31.2,29.53,WNW,284,1.0,1.3,55,0.00,,,0.00,WUHU216HW,2013-03-16 04:55:00,
2013-03-16 01:00:00,46.1,30.7,29.53,ESE,118,0.6,1.6,55,0.00,,,0.00,WUHU216HW,2013-03-16 05:00:00,
2013-03-16 01:05:00,46.1,31.6,29.53,SE,130,1.7,2.2,57,0.00,,,0.00,WUHU216HW,2013-03-16 05:05:00,
2013-03-16 01:10:00,46.6,32.1,29.53,West,270,1.4,2.2,57,0.00,,,0.00,WUHU216HW,2013-03-16 05:10:00,
2013-03-16 06:33:00,44.1,32.3,29.52,ENE,68,0.0,0.0,63,0.00,,,0.00,WUHU216HW,2013-03-16 10:33:00,
2013-03-16 06:38:00,44.1,32.3,29.52,ENE,68,0.0,0.0,63,0.00,,,0.00,WUHU216HW,2013-03-16 10:38:00,
2013-03-16 06:43:00,44.1,32.7,29.53,ENE,68,0.0,0.0,64,0.00,,,0.00,WUHU216HW,2013-03-16 10:43:00,
2013-03-16 06:48:00,44.1,32.3,29.52,ENE,68,0.0,0.0,63,0.00,,,0.00,WUHU216HW,2013-03-16 10:48:00,
2013-03-16 06:53:00,44.1,32.3,29.53,ENE,68,0.0,0.0,63,0.00,,,0.00,WUHU216HW,2013-03-16 10:53:00,
2013-03-16 06:58:00,43.9,32.1,29.53,ENE,68,0.0,0.0,63,0.00,,,0.00,WUHU216HW,2013-03-16 10:58:00,
2013-03-16 07:03:00,43.9,32.5,29.52,ENE,68,0.0,0.0,64,0.00,,,0.00,WUHU216HW,2013-03-16 11:03:00,
2013-03-16 07:08:00,43.9,32.5,29.52,ENE,68,0.0,0.0,64,0.00,,,0.00,WUHU216HW,2013-03-16 11:08:00,
2013-03-16 07:13:00,43.9,32.5,29.53,ENE,68,0.0,0.0,64,0.00,,,0.00,WUHU216HW,2013-03-16 11:13:00,
2013-03-16 07:18:00,43.7,32.3,29.53,ENE,68,0.0,0.0,64,0.00,,,0.00,WUHU216HW,2013-03-16 11:18:00,
2013-03-16 07:23:00,43.7,32.8,29.53,ENE,68,0.0,0.0,65,0.00,,,0.00,WUHU216HW,2013-03-16 11:23:00,
2013-03-16 07:28:00,43.7,32.8,29.53,ENE,68,0.0,0.0,65,0.00,,,0.00,WUHU216HW,2013-03-16 11:28:00,
2013-03-16 07:33:00,43.6,32.6,29.53,NNW,338,0.0,0.0,65,0.00,,,0.00,WUHU216HW,2013-03-16 11:33:00,
2013-03-16 07:38:00,43.6,32.6,29.53,NNW,338,0.0,0.0,65,0.00,,,0.00,WUHU216HW,2013-03-16 11:38:00,
2013-03-16 07:43:00,43.6,32.6,29.53,WNW,293,0.4,0.5,65,0.00,,,0.00,WUHU216HW,2013-03-16 11:43:00,
2013-03-16 07:48:00,43.4,32.8,29.54,WNW,293,0.2,0.5,66,0.00,,,0.00,WUHU216HW,2013-03-16 11:48:00,
2013-03-16 07:53:00,43.2,32.6,29.54,WNW,293,0.2,0.5,66,0.00,,,0.00,WUHU216HW,2013-03-16 11:53:00,
2013-03-16 07:58:00,43.2,32.6,29.54,WNW,293,0.0,0.2,66,0.00,,,0.00,WUHU216HW,2013-03-16 11:58:00,
2013-03-16 08:03:00,43.2,33.0,29.54,NNW,338,0.2,0.2,67,0.00,,,0.00,WUHU216HW,2013-03-16 12:03:00,
2013-03-16 08:39:00,43.4,33.9,29.53,ENE,68,0.4,0.5,69,0.00,,,0.00,WUHU216HW,2013-03-16 12:39:00,
2013-03-16 08:44:00,43.4,33.9,29.53,ENE,68,0.4,0.5,69,0.00,,,0.00,WUHU216HW,2013-03-16 12:44:00,
2013-03-16 09:00:00,43.4,33.9,29.52,NE,45,0.4,0.5,69,0.00,,,0.00,WUHU216HW,2013-03-16 13:00:00,
2013-03-16 09:05:00,43.4,33.9,29.52,East,90,0.4,1.9,69,0.00,,,0.00,WUHU216HW,2013-03-16 13:05:00,
2013-03-16 09:10:00,43.4,33.9,29.52,East,90,0.4,1.9,69,0.00,,,0.00,WUHU216HW,2013-03-16 13:10:00,
2013-03-16 09:30:00,43.4,34.3,29.51,ENE,68,1.4,1.6,70,0.00,,,0.00,WUHU216HW,2013-03-16 13:30:00,
2013-03-16 09:35:00,43.6,34.5,29.50,SE,128,0.2,2.2,70,0.00,,,0.00,WUHU216HW,2013-03-16 13:35:00,
2013-03-16 09:40:00,43.7,34.7,29.51,NE,45,0.8,2.2,70,0.00,,,0.00,WUHU216HW,2013-03-16 13:40:00,
2013-03-16 09:45:00,44.1,35.3,29.51,East,80,0.7,3.0,71,0.00,,,0.00,WUHU216HW,2013-03-16 13:45:00,
2013-03-16 09:50:00,44.3,35.5,29.51,NW,309,0.4,3.0,71,0.00,,,0.00,WUHU216HW,2013-03-16 13:50:00,
2013-03-16 09:55:00,44.6,35.8,29.51,SE,135,1.0,3.0,71,0.00,,,0.00,WUHU216HW,2013-03-16 13:55:00,
2013-03-16 10:01:00,44.6,35.5,29.50,ENE,71,1.4,3.0,70,0.00,,,0.00,WUHU216HW,2013-03-16 14:01:00,
2013-03-16 10:06:00,44.6,35.5,29.50,ENE,68,1.2,2.6,70,0.00,,,0.00,WUHU216HW,2013-03-16 14:06:00,
2013-03-16 10:11:00,44.8,35.6,29.50,ENE,59,0.7,3.7,70,0.00,,,0.00,WUHU216HW,2013-03-16 14:11:00,
2013-03-16 10:16:00,44.8,35.6,29.49,East,90,2.4,3.7,70,0.00,,,0.00,WUHU216HW,2013-03-16 14:16:00,
2013-03-16 10:21:00,45.0,35.8,29.49,NE,42,0.8,2.6,70,0.00,,,0.00,WUHU216HW,2013-03-16 14:21:00,
2013-03-16 10:26:00,45.0,35.8,29.48,SE,135,0.4,2.6,70,0.00,,,0.00,WUHU216HW,2013-03-16 14:26:00,
2013-03-16 10:31:00,45.4,35.8,29.49,South,180,0.4,1.3,69,0.00,,,0.00,WUHU216HW,2013-03-16 14:31:00,
2013-03-16 10:36:00,45.7,36.2,29.49,East,83,0.6,1.3,69,0.00,,,0.00,WUHU216HW,2013-03-16 14:36:00,
2013-03-16 10:41:00,45.9,35.9,29.48,SE,135,1.0,1.6,68,0.00,,,0.00,WUHU216HW,2013-03-16 14:41:00,
2013-03-16 10:46:00,46.3,36.3,29.48,SE,135,0.8,1.6,68,0.00,,,0.00,WUHU216HW,2013-03-16 14:46:00,
2013-03-16 10:51:00,46.4,36.5,29.48,ENE,68,2.8,3.0,68,0.00,,,0.00,WUHU216HW,2013-03-16 14:51:00,
2013-03-16 10:56:00,46.6,36.6,29.48,ENE,62,1.6,3.0,68,0.00,,,0.00,WUHU216HW,2013-03-16 14:56:00,
2013-03-16 11:01:00,46.6,36.3,29.48,ENE,68,1.2,3.0,67,0.00,,,0.00,WUHU216HW,2013-03-16 15:01:00,
2013-03-16 11:06:00,46.4,36.5,29.48,ENE,58,0.5,2.6,68,0.00,,,0.00,WUHU216HW,2013-03-16 15:06:00,
2013-03-16 11:11:00,46.6,36.6,29.46,ENE,68,2.2,3.7,68,0.00,,,0.00,WUHU216HW,2013-03-16 15:11:00,
2013-03-16 11:16:00,46.6,36.6,29.47,North,0,0.2,3.7,68,0.00,,,0.00,WUHU216HW,2013-03-16 15:16:00,
2013-03-16 11:21:00,46.8,36.8,29.47,NE,40,0.8,2.4,68,0.00,,,0.00,WUHU216HW,2013-03-16 15:21:00,
2013-03-16 11:26:00,46.6,36.3,29.48,NNE,26,0.9,3.0,67,0.00,,,0.00,WUHU216HW,2013-03-16 15:26:00,
2013-03-16 11:31:00,46.6,36.3,29.46,East,95,1.3,3.0,67,0.00,,,0.00,WUHU216HW,2013-03-16 15:31:00,
2013-03-16 11:36:00,46.4,36.5,29.47,NNE,26,0.5,2.4,68,0.00,,,0.00,WUHU216HW,2013-03-16 15:36:00,
2013-03-16 11:40:00,46.4,36.9,29.46,NNE,23,2.0,2.2,69,0.00,,,0.00,WUHU216HW,2013-03-16 15:40:00,
2013-03-16 11:41:00,46.4,36.9,29.46,NNE,23,2.0,2.2,69,0.00,,,0.00,WUHU216HW,2013-03-16 15:41:00,
2013-03-16 11:46:00,46.4,36.9,29.46,NNE,23,2.0,2.2,69,0.00,,,0.00,WUHU216HW,2013-03-16 15:46:00,
2013-03-16 12:00:00,46.4,36.5,29.45,North,0,0.4,0.5,68,0.00,,,0.00,WUHU216HW,2013-03-16 16:00:00,
2013-03-16 12:05:00,46.4,36.5,29.45,North,0,0.4,0.5,68,0.00,,,0.00,WUHU216HW,2013-03-16 16:05:00,
2013-03-16 12:30:00,47.2,37.5,29.43,NNE,23,1.2,1.3,69,0.00,,,0.00,WUHU216HW,2013-03-16 16:30:00,
2013-03-16 12:35:00,47.2,37.5,29.43,NNE,23,1.2,1.3,69,0.00,,,0.00,WUHU216HW,2013-03-16 16:35:00,
2013-03-16 13:00:00,47.9,38.2,29.43,SSE,158,1.4,1.6,69,0.00,,,0.00,WUHU216HW,2013-03-16 17:00:00,
2013-03-16 13:05:00,47.9,38.2,29.43,SSE,158,1.4,1.6,69,0.00,,,0.00,WUHU216HW,2013-03-16 17:05:00,
2013-03-16 13:30:00,49.3,37.6,29.40,NE,45,1.0,1.1,64,0.00,,,0.00,WUHU216HW,2013-03-16 17:30:00,
2013-03-16 13:35:00,49.3,37.6,29.40,NE,45,1.0,1.1,64,0.00,,,0.00,WUHU216HW,2013-03-16 17:35:00,
2013-03-16 14:00:00,49.3,38.0,29.40,North,0,1.8,1.9,65,0.00,,,0.00,WUHU216HW,2013-03-16 18:00:00,
2013-03-16 14:05:00,49.3,38.0,29.40,North,0,1.2,1.9,65,0.00,,,0.00,WUHU216HW,2013-03-16 18:05:00,
2013-03-16 14:30:00,46.8,36.8,29.40,NW,315,1.2,1.3,68,0.00,,,0.00,WUHU216HW,2013-03-16 18:30:00,
2013-03-16 14:35:00,46.8,36.8,29.40,NW,315,1.2,1.3,68,0.00,,,0.00,WUHU216HW,2013-03-16 18:35:00,
2013-03-16 15:00:00,44.8,36.4,29.41,ENE,68,2.0,2.2,72,0.00,,,0.00,WUHU216HW,2013-03-16 19:00:00,
2013-03-16 15:05:00,44.6,36.2,29.41,ENE,68,1.4,2.2,72,0.00,,,0.00,WUHU216HW,2013-03-16 19:05:00,
2013-03-16 15:30:00,43.7,35.6,29.41,NE,45,0.4,0.5,73,0.00,,,0.00,WUHU216HW,2013-03-16 19:30:00,
2013-03-16 15:35:00,43.6,35.5,29.41,WNW,293,2.8,3.0,73,0.00,,,0.00,WUHU216HW,2013-03-16 19:35:00,
2013-03-16 15:40:00,43.2,35.2,29.41,NE,36,2.0,3.2,73,0.00,,,0.00,WUHU216HW,2013-03-16 19:40:00,
2013-03-16 15:45:00,42.8,35.1,29.41,North,351,0.6,3.2,74,0.00,,,0.00,WUHU216HW,2013-03-16 19:45:00,
2013-03-16 15:50:00,42.5,35.1,29.42,NE,45,2.8,4.3,75,0.00,,,0.00,WUHU216HW,2013-03-16 19:50:00,
2013-03-16 15:55:00,42.1,35.1,29.41,NE,51,1.9,4.3,76,0.00,,,0.00,WUHU216HW,2013-03-16 19:55:00,
2013-03-16 16:00:00,41.9,35.2,29.41,NNE,31,0.9,4.1,77,0.00,,,0.00,WUHU216HW,2013-03-16 20:00:00,
2013-03-16 16:05:00,41.8,35.0,29.42,NE,45,2.0,2.6,77,0.00,,,0.00,WUHU216HW,2013-03-16 20:05:00,
2013-03-16 16:10:00,41.6,35.2,29.42,NE,36,1.0,2.6,78,0.00,,,0.00,WUHU216HW,2013-03-16 20:10:00,
2013-03-16 16:15:00,41.6,35.2,29.42,NE,38,1.8,3.2,78,0.00,,,0.00,WUHU216HW,2013-03-16 20:15:00,
2013-03-16 16:17:00,41.6,35.5,29.42,ENE,68,3.0,3.2,79,0.00,,,0.00,WUHU216HW,2013-03-16 20:17:00,
2013-03-16 16:20:00,41.6,35.5,29.42,ENE,68,3.0,3.2,79,0.00,,,0.00,WUHU216HW,2013-03-16 20:20:00,
2013-03-16 16:25:00,41.6,35.5,29.42,ENE,68,3.0,3.2,79,0.00,,,0.00,WUHU216HW,2013-03-16 20:25:00,
2013-03-16 16:47:00,40.3,34.9,29.43,ENE,68,0.0,0.0,81,0.00,,,0.00,WUHU216HW,2013-03-16 20:47:00,
2013-03-16 16:52:00,40.3,34.9,29.43,ENE,68,0.0,0.0,81,0.00,,,0.00,WUHU216HW,2013-03-16 20:52:00,
2013-03-16 17:00:00,40.3,35.2,29.43,ESE,113,0.4,0.5,82,0.00,,,0.00,WUHU216HW,2013-03-16 21:00:00,
2013-03-16 17:05:00,40.3,35.2,29.43,ESE,113,0.4,0.5,82,0.00,,,0.00,WUHU216HW,2013-03-16 21:05:00,
2013-03-16 17:30:00,40.1,34.7,29.46,NW,315,0.0,0.0,81,0.00,,,0.00,WUHU216HW,2013-03-16 21:30:00,
2013-03-16 17:35:00,40.1,34.7,29.46,NW,315,0.0,0.0,81,0.00,,,0.00,WUHU216HW,2013-03-16 21:35:00,
2013-03-16 18:00:00,40.3,34.9,29.47,North,0,0.4,0.5,81,0.00,,,0.00,WUHU216HW,2013-03-16 22:00:00,
2013-03-16 18:05:00,40.1,34.5,29.47,North,0,1.2,1.6,80,0.00,,,0.00,WUHU216HW,2013-03-16 22:05:00,
2013-03-16 18:10:00,40.1,34.5,29.48,NE,45,0.2,2.2,80,0.00,,,0.00,WUHU216HW,2013-03-16 22:10:00,
2013-03-16 18:15:00,40.1,34.5,29.47,NNE,30,1.3,2.2,80,0.00,,,0.00,WUHU216HW,2013-03-16 22:15:00,
2013-03-16 18:20:00,40.1,34.1,29.48,NE,47,1.5,4.3,79,0.00,,,0.00,WUHU216HW,2013-03-16 22:20:00,
2013-03-16 18:25:00,40.1,34.5,29.48,NNW,338,0.0,4.3,80,0.00,,,0.00,WUHU216HW,2013-03-16 22:25:00,
2013-03-16 18:30:00,40.3,34.3,29.49,NNW,346,0.4,2.6,79,0.00,,,0.00,WUHU216HW,2013-03-16 22:30:00,
2013-03-16 18:35:00,40.3,34.3,29.49,NNW,330,0.1,2.6,79,0.00,,,0.00,WUHU216HW,2013-03-16 22:35:00,
2013-03-16 18:40:00,40.3,34.3,29.50,North,354,0.2,0.8,79,0.00,,,0.00,WUHU216HW,2013-03-16 22:40:00,
2013-03-16 18:45:00,40.1,34.1,29.50,North,0,0.1,0.8,79,0.00,,,0.00,WUHU216HW,2013-03-16 22:45:00,
2013-03-16 18:50:00,40.3,33.9,29.50,NE,45,0.4,0.5,78,0.00,,,0.00,WUHU216HW,2013-03-16 22:50:00,
2013-03-16 18:55:00,40.1,33.9,29.50,ESE,123,0.1,1.1,78,0.00,,,0.00,WUHU216HW,2013-03-16 22:55:00,
2013-03-16 19:00:00,40.1,33.9,29.51,East,99,0.6,1.1,78,0.00,,,0.00,WUHU216HW,2013-03-16 23:00:00,
2013-03-16 19:05:00,40.0,33.7,29.51,ENE,70,0.6,1.6,78,0.00,,,0.00,WUHU216HW,2013-03-16 23:05:00,
2013-03-16 19:10:00,40.0,33.9,29.51,East,90,0.0,1.6,79,0.00,,,0.00,WUHU216HW,2013-03-16 23:10:00,
2013-03-16 19:15:00,39.8,33.9,29.51,East,85,0.5,2.2,79,0.00,,,0.00,WUHU216HW,2013-03-16 23:15:00,
2013-03-16 19:20:00,39.4,33.5,29.51,ESE,113,2.0,2.4,79,0.00,,,0.00,WUHU216HW,2013-03-16 23:20:00,
2013-03-16 19:25:00,39.2,33.3,29.51,NE,44,0.6,2.4,79,0.00,,,0.00,WUHU216HW,2013-03-16 23:25:00,
2013-03-16 19:30:00,39.2,33.3,29.52,ENE,66,0.9,2.4,79,0.00,,,0.00,WUHU216HW,2013-03-16 23:30:00,
2013-03-16 19:35:00,39.1,33.1,29.52,ENE,68,0.4,2.4,79,0.00,,,0.00,WUHU216HW,2013-03-16 23:35:00,
2013-03-16 19:40:00,38.9,33.3,29.53,ENE,69,1.3,2.2,80,0.00,,,0.00,WUHU216HW,2013-03-16 23:40:00,
2013-03-16 19:45:00,38.7,33.1,29.53,NE,45,0.4,2.2,80,0.00,,,0.00,WUHU216HW,2013-03-16 23:45:00,
2013-03-16 19:50:00,38.9,33.3,29.54,NE,45,1.8,2.2,80,0.00,,,0.00,WUHU216HW,2013-03-16 23:50:00,
2013-03-16 19:55:00,38.7,33.1,29.54,ENE,68,1.2,3.2,80,0.00,,,0.00,WUHU216HW,2013-03-16 23:55:00,
2013-03-16 20:00:00,38.7,33.1,29.55,NE,54,1.2,3.2,80,0.00,,,0.00,WUHU216HW,2013-03-17 00:00:00,
2013-03-16 20:05:00,38.7,33.1,29.55,NE,46,0.4,1.9,80,0.00,,,0.00,WUHU216HW,2013-03-17 00:05:00,
2013-03-16 20:10:00,38.7,33.1,29.55,ENE,62,0.4,1.1,80,0.00,,,0.00,WUHU216HW,2013-03-17 00:10:00,
2013-03-16 20:15:00,38.7,33.1,29.56,NNE,23,1.2,1.3,80,0.00,,,0.00,WUHU216HW,2013-03-17 00:15:00,
2013-03-16 20:20:00,38.5,32.9,29.56,North,0,0.0,1.3,80,0.00,,,0.00,WUHU216HW,2013-03-17 00:20:00,
2013-03-16 20:25:00,38.5,32.9,29.56,NE,35,0.6,1.6,80,0.00,,,0.00,WUHU216HW,2013-03-17 00:25:00,
2013-03-16 20:30:00,38.5,32.9,29.56,NE,45,1.2,2.4,80,0.00,,,0.00,WUHU216HW,2013-03-17 00:30:00,
2013-03-16 20:35:00,38.3,32.8,29.58,East,90,0.4,2.4,80,0.00,,,0.00,WUHU216HW,2013-03-17 00:35:00,
2013-03-16 20:40:00,38.3,32.8,29.58,ENE,68,1.2,2.2,80,0.00,,,0.00,WUHU216HW,2013-03-17 00:40:00,
2013-03-16 20:45:00,38.3,32.8,29.59,NE,40,0.9,2.2,80,0.00,,,0.00,WUHU216HW,2013-03-17 00:45:00,
2013-03-16 20:50:00,38.3,32.8,29.59,NE,45,2.0,2.2,80,0.00,,,0.00,WUHU216HW,2013-03-17 00:50:00,
2013-03-16 20:55:00,38.3,32.8,29.59,ENE,68,0.4,2.2,80,0.00,,,0.00,WUHU216HW,2013-03-17 00:55:00,
2013-03-16 21:00:00,38.3,32.8,29.59,ENE,64,0.9,2.2,80,0.00,,,0.00,WUHU216HW,2013-03-17 01:00:00,
2013-03-16 21:05:00,38.3,32.8,29.60,NE,45,2.4,2.6,80,0.00,,,0.00,WUHU216HW,2013-03-17 01:05:00,
2013-03-16 21:10:00,38.3,32.8,29.60,East,90,0.7,2.6,80,0.00,,,0.00,WUHU216HW,2013-03-17 01:10:00,
2013-03-16 21:15:00,38.2,32.6,29.60,NE,45,0.3,2.6,80,0.00,,,0.00,WUHU216HW,2013-03-17 01:15:00,
2013-03-16 21:20:00,38.2,32.6,29.61,NNE,23,0.0,2.2,80,0.00,,,0.00,WUHU216HW,2013-03-17 01:20:00,
2013-03-16 21:25:00,38.3,32.8,29.61,ENE,68,1.8,1.9,80,0.00,,,0.00,WUHU216HW,2013-03-17 01:25:00,
2013-03-16 21:30:00,38.2,32.6,29.61,NE,47,0.9,2.6,80,0.00,,,0.00,WUHU216HW,2013-03-17 01:30:00,
2013-03-16 21:35:00,38.0,32.4,29.61,East,83,1.2,2.6,80,0.00,,,0.00,WUHU216HW,2013-03-17 01:35:00,
2013-03-16 21:40:00,37.8,32.2,29.62,NE,45,2.8,3.0,80,0.00,,,0.00,WUHU216HW,2013-03-17 01:40:00,
2013-03-16 21:45:00,37.8,32.2,29.62,NE,36,2.4,4.8,80,0.00,,,0.00,WUHU216HW,2013-03-17 01:45:00,
2013-03-16 21:50:00,37.6,32.0,29.63,ENE,72,1.6,4.8,80,0.00,,,0.00,WUHU216HW,2013-03-17 01:50:00,
2013-03-16 21:55:00,37.4,31.9,29.63,NNE,23,1.2,3.7,80,0.00,,,0.00,WUHU216HW,2013-03-17 01:55:00,
2013-03-16 22:00:00,37.3,32.0,29.63,NE,43,1.0,3.0,81,0.00,,,0.00,WUHU216HW,2013-03-17 02:00:00,
2013-03-16 22:05:00,37.1,31.8,29.64,ENE,68,0.8,2.2,81,0.00,,,0.00,WUHU216HW,2013-03-17 02:05:00,
2013-03-16 22:10:00,37.1,31.8,29.64,NE,45,0.1,2.2,81,0.00,,,0.00,WUHU216HW,2013-03-17 02:10:00,
2013-03-16 22:15:00,37.1,31.8,29.64,NE,49,1.6,3.7,81,0.00,,,0.00,WUHU216HW,2013-03-17 02:15:00,
2013-03-16 22:20:00,37.1,31.8,29.64,ENE,68,1.8,3.7,81,0.00,,,0.00,WUHU216HW,2013-03-17 02:20:00,
2013-03-16 22:25:00,36.9,31.6,29.65,ENE,72,1.3,3.7,81,0.00,,,0.00,WUHU216HW,2013-03-17 02:25:00,
2013-03-16 22:30:00,36.9,31.6,29.65,NE,36,0.9,3.7,81,0.00,,,0.00,WUHU216HW,2013-03-17 02:30:00,
2013-03-16 22:35:00,36.7,31.7,29.65,ENE,68,2.0,2.2,82,0.00,,,0.00,WUHU216HW,2013-03-17 02:35:00,
2013-03-16 22:40:00,36.7,31.7,29.65,NE,48,0.4,2.2,82,0.00,,,0.00,WUHU216HW,2013-03-17 02:40:00,
2013-03-16 22:45:00,36.5,31.5,29.65,East,90,2.0,2.2,82,0.00,,,0.00,WUHU216HW,2013-03-17 02:45:00,
2013-03-16 22:50:00,36.7,31.7,29.66,East,96,0.2,2.2,82,0.00,,,0.00,WUHU216HW,2013-03-17 02:50:00,
2013-03-16 22:55:00,36.7,31.7,29.66,ENE,68,0.8,2.2,82,0.00,,,0.00,WUHU216HW,2013-03-17 02:55:00,
2013-03-16 23:00:00,36.5,31.5,29.66,NNE,27,1.3,3.0,82,0.00,,,0.00,WUHU216HW,2013-03-17 03:00:00,
2013-03-16 23:05:00,36.5,31.5,29.66,East,90,1.8,3.0,82,0.00,,,0.00,WUHU216HW,2013-03-17 03:05:00,
2013-03-16 23:10:00,36.4,31.3,29.66,NE,54,1.5,3.2,82,0.00,,,0.00,WUHU216HW,2013-03-17 03:10:00,
2013-03-16 23:15:00,36.2,31.5,29.66,ENE,73,1.0,3.2,83,0.00,,,0.00,WUHU216HW,2013-03-17 03:15:00,
2013-03-16 23:20:00,36.2,31.5,29.66,NE,41,1.1,3.5,83,0.00,,,0.00,WUHU216HW,2013-03-17 03:20:00,
2013-03-16 23:25:00,36.2,31.5,29.66,NNE,23,1.2,3.5,83,0.00,,,0.00,WUHU216HW,2013-03-17 03:25:00,
2013-03-16 23:30:00,36.2,31.5,29.66,ENE,68,0.8,2.2,83,0.00,,,0.00,WUHU216HW,2013-03-17 03:30:00,
2013-03-16 23:35:00,36.2,31.5,29.66,NNE,23,0.4,2.2,83,0.00,,,0.00,WUHU216HW,2013-03-17 03:35:00,
2013-03-16 23:40:00,36.2,31.5,29.66,NE,49,0.7,1.9,83,0.00,,,0.00,WUHU216HW,2013-03-17 03:40:00,
2013-03-16 23:45:00,36.0,31.3,29.66,NNE,23,0.8,1.6,83,0.00,,,0.00,WUHU216HW,2013-03-17 03:45:00,
2013-03-16 23:50:00,36.0,31.6,29.66,NNE,21,0.7,1.9,84,0.00,,,0.00,WUHU216HW,2013-03-17 03:50:00,
2013-03-16 23:55:00,36.0,31.6,29.66,ENE,58,0.4,1.9,84,0.00,,,0.00,WUHU216HW,2013-03-17 03:55:00,